Roma, Italy

12:49 AM CET del 27 Febbraio 2017 (GMT +0100)
Colosseo | | Change Station

Alt. 164 ft 41.90 °N, 12.48 °E | Updated 2 seconds ago

Sereno
Sereno
50.0 °F
Sembra 50.0 °F
N
0.0
Vento Variabile Vento da ONO
Gusts 0.0 mph

Oggi
Massima -- | Minima -- °F
--% Possibilità di precip.
Ieri
Massima -- | Minima -- °F
Precip. -- in
Pressione 30.04 in
Visibilità -9999.0 miglia
Nuvole
Punto di rugiada 45 °F
Umidità 84%
Piovosità 0.00 in
Spessore del manto nevoso Non disponibile.
6:48 AM 5:57 PM
Luna nuova, 0% visible
METAR LIRA 262320Z VRB02KT CAVOK 08/06 Q1017
Pressione 30.04 in
Visibilità -9999.0 miglia
Nuvole
Punto di rugiada 45 °F
Umidità 84%
Piovosità 0.00 in
Spessore del manto nevoso Non disponibile.
6:48 AM 5:57 PM
Luna nuova, 0% visible
METAR LIRA 262320Z VRB02KT CAVOK 08/06 Q1017

Get Your Daily Forecast Email!

Thanks for signing up!

Be on the lookout for a verification email in your inbox.

You'll start receiving the daily forecast at 8 AM.

×

10-Day Weather Forecast

×

Almanac

Astronomia

Feb. 27, 2017 Alba Tramonto
Ora attuale
Crepuscolo civile
Crepuscolo nautico
Crepuscolo astronomico
Luna
Estensione della luce visibile
Lunghezza del giorno
Tomorrow will be .
, % of the Moon is Illuminated

Gli estremi di oggi

Massime Regione Minime Regione

Community

WunderPhotos

Upload Photos

1,962,540 foto caricate!

WunderBlog® & News

Nearby

Qualità dell'aria

  Qualità dell'aria Indice AQ Inquinante
Not available.

Profondità neve

Stazione Profondità Altitudine

Attività sismica

Città  Distanza Mag. Data & Ora
Minimo Magnitudo Mostrato è 2.5.

Temperature delle acque costiere

Località Temperatura

Stations

Stazioni meteo nelle vicinanze

Ubicazione della stazione Temp. Raffreddamento del vento Punto di rugiada Umidità Vento Precip. Alt. Aggiornato Tipo